Flight Track Log - Related Links

Times and Time Zones

All times are in EDT time to prevent confusion due to time zone crossing. See the UPS1121 flight status page for this flight to view local times or setup timezone preferences in your user account.

Time Position Orientation Groundspeed Altitude Reporting Facility
EDT Latitude Longitude Course Direction KTS MPH feet Rate Location/Type
Wed 08:35:56 PM 42.7381 -73.8083 145° Southeast 133 153 1,700  Level Boston Center
Wed 08:37:31 PM 42.6783 -73.7506 145° Southeast 201 231 4,800 2,500 Climbing Boston Center
Wed 08:38:32 PM 42.6272 -73.6733 132° Southeast 253 291 8,200 2,951 Climbing Boston Center
Wed 08:39:33 PM 42.5800 -73.5961 130° Southeast 289 333 10,800 1,424 Climbing Boston Center
Wed 08:40:30 PM 42.5144 -73.4850 129° Southeast 327 376 11,000 51 Climbing Boston Center
Wed 08:41:30 PM 42.4569 -73.3969 131° Southeast 345 397 10,900 66 Descending Boston Center
Wed 08:42:01 PM 42.4178 -73.3428 134° Southeast 341 392 11,100 197 Climbing Boston Center
Wed 08:42:31 PM 42.3825 -73.2944 135° Southeast 341 392 11,100  Level Boston Center
Wed 08:43:32 PM 42.3208 -73.2039 133° Southeast 340 391 11,100 -353 Level Boston Center
Wed 08:44:30 PM 42.2733 -73.1192 127° Southeast 311 358 10,400 -1,279 Descending Boston Center
Wed 08:45:34 PM 42.2531 -73.0067 104° East 301 346 8,500 -1,466 Descending Boston Center
Wed 08:46:41 PM 42.2328 -72.8914 103° East 295 339 7,200 -938 Descending Boston Center
Wed 08:47:42 PM 42.2164 -72.7933 103° East 254 292 6,500 -843 Descending Boston Center
Wed 08:48:42 PM 42.2022 -72.7036 102° East 231 266 5,500 -958 Descending Boston Center
Wed 08:49:41 PM 42.1669 -72.6333 124° Southeast 208 239 4,600 -750 Descending Boston Center
Wed 08:50:42 PM 42.1253 -72.5828 138° Southeast 205 236 4,000 -563 Descending Boston Center
Wed 08:51:49 PM 42.0753 -72.5575 159° South 173 199 3,400 -661 Descending Boston Center
Wed 08:52:49 PM 42.0314 -72.5686 191° South 174 200 2,600 -843 Descending Boston Center
Wed 08:53:50 PM 42.0000 -72.6050 221° Southwest 147 169 1,700 -787 Descending Boston Center
Wed 08:54:51 PM 41.9750 -72.6383 225° Southwest 102 117 1,000 -629 Descending Boston Center
Wed 08:55:54 PM 41.9522 -72.6661 222° Southwest 107 123 400 -571 Descending Boston Center

Login

Don't have an account? Register now (free) for customized features, flight alerts, and more!